Time;durP1;ratioP1;P1;durP2;ratioP2;P2;SDS_P1;SDS_P2;PMS_P1;PMS_P2;Temp;Humidity;BMP_temperature;BMP_pressure;BME280_temperature;BME280_humidity;BME280_pressure;Samples;Min_cycle;Max_cycle;Signal;HPM_P1;HPM_P2
2022/03/11 00:02:03;;;;;;;9.98;4.90;;;5.40;60.00;;;;;;5025377;28;20150;-71
2022/03/11 00:04:30;;;;;;;11.05;4.80;;;5.40;60.00;;;;;;5028994;28;21160;-70
2022/03/11 00:06:57;;;;;;;10.63;4.07;;;5.30;60.00;;;;;;5029286;28;22007;-69
2022/03/11 00:09:25;;;;;;;13.88;5.80;;;5.30;60.10;;;;;;5032860;28;20041;-69
2022/03/11 00:11:52;;;;;;;12.48;5.65;;;5.40;59.90;;;;;;5031894;28;20386;-69
2022/03/11 00:14:19;;;;;;;11.73;4.55;;;5.30;60.10;;;;;;5031789;28;20037;-70
2022/03/11 00:16:47;;;;;;;8.98;5.07;;;5.30;59.80;;;;;;5032301;28;20049;-69
2022/03/11 00:19:14;;;;;;;12.32;6.05;;;5.30;59.90;;;;;;5031787;28;20454;-69
2022/03/11 00:21:40;;;;;;;10.60;4.38;;;5.30;59.90;;;;;;5033118;28;20052;-69
2022/03/11 00:24:08;;;;;;;11.63;5.53;;;5.30;60.10;;;;;;5033313;28;20168;-70
2022/03/11 00:26:36;;;;;;;11.60;5.40;;;5.30;60.20;;;;;;5032318;28;20156;-69
2022/03/11 00:29:03;;;;;;;11.35;5.00;;;5.30;60.20;;;;;;5032656;28;20163;-70
2022/03/11 00:31:30;;;;;;;9.70;4.75;;;5.30;60.10;;;;;;5032069;28;20505;-70
2022/03/11 00:33:58;;;;;;;12.48;5.85;;;5.20;60.40;;;;;;5033251;28;20060;-69
2022/03/11 00:36:26;;;;;;;10.77;4.60;;;5.30;60.30;;;;;;5032395;28;20490;-69
2022/03/11 00:38:53;;;;;;;11.00;4.50;;;5.30;60.10;;;;;;5031420;28;20060;-71
2022/03/11 00:41:20;;;;;;;12.10;5.53;;;5.30;59.90;;;;;;5033028;28;20052;-71
2022/03/11 00:43:48;;;;;;;11.57;5.13;;;5.30;60.10;;;;;;5033747;28;20069;-68
2022/03/11 00:46:15;;;;;;;14.80;6.20;;;5.20;60.20;;;;;;5031261;28;20184;-69
2022/03/11 00:48:42;;;;;;;15.43;5.60;;;5.20;60.30;;;;;;5035964;28;20525;-70
2022/03/11 00:51:10;;;;;;;10.70;5.38;;;5.20;60.50;;;;;;5033023;28;20912;-69
2022/03/11 00:53:37;;;;;;;13.75;5.45;;;5.20;60.60;;;;;;5034468;28;20748;-68
2022/03/11 00:56:04;;;;;;;12.15;5.40;;;5.20;60.60;;;;;;5035546;28;20132;-69
2022/03/11 00:58:31;;;;;;;13.20;5.90;;;5.20;60.70;;;;;;5030126;28;20053;-68
2022/03/11 01:00:59;;;;;;;14.60;5.57;;;5.20;60.70;;;;;;5028609;28;20080;-70
2022/03/11 01:03:26;;;;;;;14.43;5.38;;;5.20;60.90;;;;;;5029768;28;20045;-68
2022/03/11 01:05:53;;;;;;;12.63;6.13;;;5.20;60.90;;;;;;5029842;28;20709;-68
2022/03/11 01:08:20;;;;;;;10.40;5.22;;;5.10;61.10;;;;;;5031378;28;20050;-69
2022/03/11 01:10:47;;;;;;;11.30;5.22;;;5.10;61.20;;;;;;5030451;28;20049;-68
2022/03/11 01:13:14;;;;;;;16.13;6.50;;;5.00;61.20;;;;;;5031772;28;20041;-70
2022/03/11 01:15:42;;;;;;;12.35;5.78;;;5.10;61.10;;;;;;5030232;28;20049;-69
2022/03/11 01:18:10;;;;;;;11.27;5.20;;;5.10;61.10;;;;;;5032211;28;20209;-69
2022/03/11 01:20:37;;;;;;;10.63;6.15;;;5.10;60.80;;;;;;5029200;28;20040;-69
2022/03/11 01:23:04;;;;;;;13.85;6.18;;;5.10;60.90;;;;;;5024654;28;20033;-69
2022/03/11 01:25:31;;;;;;;15.20;7.13;;;5.10;60.90;;;;;;5024243;28;20467;-69
2022/03/11 01:27:58;;;;;;;15.13;6.78;;;5.10;60.80;;;;;;5023583;28;20672;-69
2022/03/11 01:30:25;;;;;;;14.68;6.40;;;5.10;60.60;;;;;;5022485;28;20060;-70
2022/03/11 01:32:53;;;;;;;11.88;6.05;;;5.10;60.70;;;;;;5029177;28;20051;-69
2022/03/11 01:35:22;;;;;;;14.07;6.50;;;5.00;60.70;;;;;;5031029;28;20041;-68
2022/03/11 01:37:49;;;;;;;13.00;6.50;;;5.00;60.90;;;;;;5024396;28;20041;-69
2022/03/11 01:40:18;;;;;;;16.23;6.53;;;5.00;60.80;;;;;;5029714;28;20065;-69
2022/03/11 01:42:45;;;;;;;12.55;5.97;;;5.00;60.80;;;;;;5029633;28;20057;-68
2022/03/11 01:45:12;;;;;;;16.23;7.35;;;5.00;60.80;;;;;;5027566;28;21565;-68
2022/03/11 01:47:40;;;;;;;10.68;5.60;;;5.00;60.70;;;;;;5028664;28;20051;-68
2022/03/11 01:50:07;;;;;;;14.38;6.25;;;5.00;60.70;;;;;;5030559;28;20037;-69
2022/03/11 01:52:37;;;;;;;13.65;6.40;;;5.00;60.60;;;;;;5030972;28;21899;-68
2022/03/11 01:55:05;;;;;;;16.88;6.35;;;5.00;60.60;;;;;;5031860;28;20147;-69
2022/03/11 01:57:34;;;;;;;13.27;6.15;;;5.00;60.50;;;;;;5032028;28;20060;-68
2022/03/11 02:00:02;;;;;;;14.60;6.82;;;4.90;60.60;;;;;;5022225;28;20048;-69
2022/03/11 02:02:29;;;;;;;13.73;5.75;;;4.90;60.80;;;;;;5029561;28;20608;-69
2022/03/11 02:04:56;;;;;;;16.33;6.78;;;4.90;60.80;;;;;;5029993;28;20055;-68
2022/03/11 02:07:23;;;;;;;16.90;6.93;;;4.90;60.80;;;;;;5024025;28;20049;-68
2022/03/11 02:09:51;;;;;;;14.30;6.63;;;4.90;60.80;;;;;;5029813;28;20056;-68
2022/03/11 02:12:30;;;;;;;13.52;7.13;;;4.90;60.70;;;;;;5030195;28;20047;-68
2022/03/11 02:14:57;;;;;;;13.30;6.40;;;4.90;60.90;;;;;;5030724;28;20047;-69
2022/03/11 02:17:24;;;;;;;13.25;5.97;;;4.90;60.70;;;;;;5044281;28;20052;-68
2022/03/11 02:19:51;;;;;;;15.13;6.80;;;4.90;60.30;;;;;;5031234;28;20049;-68
2022/03/11 02:22:23;;;;;;;15.43;6.68;;;5.00;60.10;;;;;;5031143;28;20043;-69
2022/03/11 02:24:51;;;;;;;12.82;5.68;;;4.90;60.10;;;;;;5029218;28;20076;-71
2022/03/11 02:27:18;;;;;;;14.93;7.85;;;4.90;60.20;;;;;;5026050;28;20044;-70
2022/03/11 02:29:45;;;;;;;13.63;5.85;;;4.90;60.10;;;;;;5024815;28;20045;-70
2022/03/11 02:32:12;;;;;;;16.98;6.43;;;4.90;60.30;;;;;;5025368;28;20051;-68
2022/03/11 02:34:40;;;;;;;16.45;7.75;;;4.90;60.30;;;;;;5026887;28;20121;-69
2022/03/11 02:37:08;;;;;;;13.68;6.32;;;4.90;60.40;;;;;;5025886;28;20515;-69
2022/03/11 02:39:35;;;;;;;16.02;7.40;;;4.90;60.30;;;;;;5060774;28;20109;-68
2022/03/11 02:42:05;;;;;;;18.73;7.43;;;4.90;60.20;;;;;;5057521;28;20063;-69
2022/03/11 02:44:31;;;;;;;12.30;6.22;;;4.90;60.30;;;;;;5038293;28;20045;-69
2022/03/11 02:47:00;;;;;;;11.73;5.60;;;4.90;60.30;;;;;;5029807;28;21039;-70
2022/03/11 02:49:27;;;;;;;18.08;7.78;;;4.80;60.30;;;;;;5020395;28;20049;-69
2022/03/11 02:51:56;;;;;;;16.00;6.32;;;4.80;60.30;;;;;;5019519;28;20051;-70
2022/03/11 02:54:24;;;;;;;18.52;7.15;;;4.80;60.20;;;;;;5029011;28;20041;-69
2022/03/11 02:56:51;;;;;;;14.02;7.10;;;4.80;60.00;;;;;;5030063;28;20045;-70
2022/03/11 02:59:19;;;;;;;15.68;6.80;;;4.80;59.90;;;;;;5028514;28;20057;-69
2022/03/11 03:01:47;;;;;;;21.27;7.40;;;4.80;60.00;;;;;;5026315;28;20045;-69
2022/03/11 03:04:14;;;;;;;15.98;8.52;;;4.80;59.90;;;;;;5028226;28;20056;-69
2022/03/11 03:06:41;;;;;;;14.65;5.93;;;4.80;60.00;;;;;;5028533;28;20050;-69
2022/03/11 03:09:08;;;;;;;14.07;6.13;;;4.80;59.90;;;;;;5030505;28;20101;-67
2022/03/11 03:11:35;;;;;;;20.02;7.22;;;4.80;59.60;;;;;;5029011;28;20064;-67
2022/03/11 03:14:02;;;;;;;15.77;7.97;;;4.70;59.80;;;;;;5028591;28;21975;-69
2022/03/11 03:16:31;;;;;;;15.25;7.25;;;4.80;59.90;;;;;;5028996;28;20052;-69
2022/03/11 03:18:58;;;;;;;14.30;6.60;;;4.70;59.80;;;;;;5027165;28;20045;-70
2022/03/11 03:21:27;;;;;;;18.60;7.80;;;4.70;60.00;;;;;;5026935;28;20191;-70
2022/03/11 03:23:54;;;;;;;13.80;5.95;;;4.70;60.10;;;;;;5030082;28;20045;-68
2022/03/11 03:26:21;;;;;;;18.52;8.75;;;4.70;60.10;;;;;;5024825;28;20060;-70
2022/03/11 03:28:47;;;;;;;14.50;7.13;;;4.70;60.00;;;;;;5028458;28;20049;-70
2022/03/11 03:31:22;;;;;;;14.45;6.65;;;4.70;59.90;;;;;;5023592;28;20059;-70
2022/03/11 03:33:51;;;;;;;15.68;6.10;;;4.60;59.90;;;;;;5023274;28;20257;-69
2022/03/11 03:36:19;;;;;;;12.70;6.60;;;4.60;59.80;;;;;;5022226;28;20582;-70
2022/03/11 03:38:45;;;;;;;14.10;6.03;;;4.60;59.50;;;;;;5026324;28;20045;-69
2022/03/11 03:41:12;;;;;;;13.50;6.68;;;4.60;59.60;;;;;;5031427;28;20056;-69
2022/03/11 03:43:39;;;;;;;13.57;7.07;;;4.60;59.70;;;;;;5032306;28;20053;-68
2022/03/11 03:46:07;;;;;;;14.38;6.32;;;4.60;59.50;;;;;;5035410;28;20045;-69
2022/03/11 03:48:34;;;;;;;14.25;6.45;;;4.60;59.50;;;;;;5032961;28;20046;-69
2022/03/11 03:51:04;;;;;;;12.65;6.57;;;4.60;59.60;;;;;;5025764;28;20052;-70
2022/03/11 03:53:31;;;;;;;12.20;6.13;;;4.60;59.50;;;;;;5032929;28;20037;-70
2022/03/11 03:55:57;;;;;;;14.25;6.38;;;4.50;59.50;;;;;;5029925;28;20048;-69
2022/03/11 03:58:24;;;;;;;14.77;6.72;;;4.60;59.20;;;;;;5027438;28;20179;-69
2022/03/11 04:00:51;;;;;;;9.43;5.07;;;4.50;59.10;;;;;;5024861;28;20059;-68
2022/03/11 04:03:18;;;;;;;12.65;6.13;;;4.60;58.90;;;;;;5029090;28;20977;-69
2022/03/11 04:05:46;;;;;;;17.23;7.25;;;4.50;58.70;;;;;;5025296;28;20053;-69
2022/03/11 04:08:16;;;;;;;13.95;7.47;;;4.60;58.60;;;;;;5028498;28;20049;-68
2022/03/11 04:10:46;;;;;;;12.05;6.65;;;4.60;58.50;;;;;;5028228;28;20513;-70
2022/03/11 04:13:13;;;;;;;16.27;7.15;;;4.60;58.40;;;;;;5028232;28;20056;-69
2022/03/11 04:15:40;;;;;;;17.15;7.47;;;4.50;58.40;;;;;;5028263;28;20049;-69
2022/03/11 04:18:08;;;;;;;12.98;6.63;;;4.50;58.60;;;;;;5028049;28;20116;-68
2022/03/11 04:20:35;;;;;;;15.10;6.55;;;4.50;58.40;;;;;;5027513;28;20041;-69
2022/03/11 04:23:02;;;;;;;14.77;6.70;;;4.40;58.50;;;;;;5025936;28;21989;-69
2022/03/11 04:25:30;;;;;;;14.70;6.63;;;4.50;58.60;;;;;;5027406;28;20055;-68
2022/03/11 04:27:57;;;;;;;14.80;6.32;;;4.40;58.50;;;;;;5026970;28;20087;-69
2022/03/11 04:30:24;;;;;;;14.07;6.28;;;4.40;58.30;;;;;;5026819;28;20041;-68
2022/03/11 04:32:51;;;;;;;13.23;6.25;;;4.40;58.20;;;;;;5026465;28;20045;-69
2022/03/11 04:35:19;;;;;;;12.38;6.18;;;4.40;58.30;;;;;;5032162;28;20056;-70
2022/03/11 04:37:46;;;;;;;13.80;5.95;;;4.30;58.20;;;;;;5027071;28;20173;-68
2022/03/11 04:40:13;;;;;;;14.23;6.50;;;4.30;58.30;;;;;;5025572;28;20131;-69
2022/03/11 04:42:42;;;;;;;13.68;6.05;;;4.30;58.30;;;;;;5024417;28;20045;-69
2022/03/11 04:45:10;;;;;;;14.10;6.15;;;4.30;58.20;;;;;;5024092;28;20045;-69
2022/03/11 04:47:37;;;;;;;11.70;6.32;;;4.30;58.20;;;;;;5024401;28;20044;-69
2022/03/11 04:50:04;;;;;;;16.08;6.13;;;4.20;57.80;;;;;;5023259;28;20053;-68
2022/03/11 04:52:31;;;;;;;9.13;4.85;;;4.30;57.70;;;;;;5025471;28;20044;-69
2022/03/11 04:54:58;;;;;;;14.73;6.47;;;4.20;57.30;;;;;;5022162;28;20390;-69
2022/03/11 04:57:24;;;;;;;10.65;5.57;;;4.20;57.20;;;;;;5025527;28;20490;-69
2022/03/11 04:59:53;;;;;;;12.23;5.68;;;4.20;56.80;;;;;;5025886;28;20999;-69
2022/03/11 05:02:27;;;;;;;10.38;4.82;;;4.20;57.00;;;;;;5023610;28;20504;-68
2022/03/11 05:04:54;;;;;;;10.27;5.57;;;4.20;56.60;;;;;;5023781;28;20478;-69
2022/03/11 05:07:21;;;;;;;11.85;5.63;;;4.10;56.30;;;;;;5025103;28;20049;-69
2022/03/11 05:09:49;;;;;;;13.18;5.65;;;4.10;56.20;;;;;;5025065;28;20045;-69
2022/03/11 05:12:16;;;;;;;9.07;4.22;;;4.10;56.10;;;;;;5023642;28;20065;-68
2022/03/11 05:14:44;;;;;;;13.75;6.05;;;4.10;56.10;;;;;;5025931;28;20712;-69
2022/03/11 05:17:12;;;;;;;10.23;4.60;;;4.10;56.00;;;;;;5024484;28;20045;-69
2022/03/11 05:19:40;;;;;;;13.38;5.70;;;4.00;56.00;;;;;;5024483;28;20056;-71
2022/03/11 05:22:07;;;;;;;10.75;4.82;;;4.00;56.10;;;;;;5024890;28;20066;-69
2022/03/11 05:24:35;;;;;;;10.13;5.10;;;4.00;55.90;;;;;;5024762;28;20048;-68
2022/03/11 05:27:02;;;;;;;12.98;5.57;;;4.00;54.90;;;;;;5023007;28;20037;-69
2022/03/11 05:29:29;;;;;;;13.63;5.22;;;4.00;54.90;;;;;;5025682;28;20052;-68
2022/03/11 05:31:56;;;;;;;8.98;3.30;;;4.00;55.30;;;;;;5025210;28;20049;-69
2022/03/11 05:34:25;;;;;;;11.30;5.30;;;3.90;55.20;;;;;;5022742;28;20045;-70
2022/03/11 05:36:52;;;;;;;7.32;4.15;;;3.90;55.00;;;;;;5025188;28;20049;-69
2022/03/11 05:39:19;;;;;;;9.90;4.32;;;4.00;55.00;;;;;;5027051;28;20060;-68
2022/03/11 05:41:47;;;;;;;11.70;4.40;;;3.90;55.00;;;;;;4985887;28;1115594;-69
2022/03/11 05:44:16;;;;;;;11.98;4.45;;;3.90;55.10;;;;;;5024651;28;20171;-69
2022/03/11 05:46:43;;;;;;;10.95;5.20;;;3.90;54.70;;;;;;5025340;28;20076;-68
2022/03/11 05:49:10;;;;;;;10.25;4.55;;;3.90;54.50;;;;;;5023672;28;20056;-68
2022/03/11 05:51:38;;;;;;;9.15;5.25;;;3.90;54.30;;;;;;5025304;28;20045;-70
2022/03/11 05:54:06;;;;;;;9.02;4.85;;;3.90;54.50;;;;;;5024268;28;20049;-70
2022/03/11 05:56:34;;;;;;;11.20;4.93;;;3.80;54.50;;;;;;5026305;28;20045;-70
2022/03/11 05:59:01;;;;;;;9.98;4.53;;;3.80;54.50;;;;;;5024739;28;20045;-70
2022/03/11 06:01:28;;;;;;;9.70;4.18;;;3.80;54.50;;;;;;5021943;28;20226;-69
2022/03/11 06:03:55;;;;;;;10.73;5.35;;;3.80;54.70;;;;;;5023730;28;20567;-68
2022/03/11 06:06:22;;;;;;;9.68;4.47;;;3.70;54.60;;;;;;5023911;28;20795;-69
2022/03/11 06:08:51;;;;;;;11.10;4.82;;;3.70;54.90;;;;;;5025685;28;20120;-70
2022/03/11 06:11:17;;;;;;;10.95;4.63;;;3.70;54.40;;;;;;5024148;28;20056;-68
2022/03/11 06:13:44;;;;;;;8.15;4.68;;;3.70;54.00;;;;;;5023368;28;20845;-69
2022/03/11 06:16:11;;;;;;;10.02;4.30;;;3.70;53.60;;;;;;5024341;28;20056;-69
2022/03/11 06:18:38;;;;;;;10.65;5.22;;;3.70;53.60;;;;;;5024431;28;20072;-69
2022/03/11 06:21:05;;;;;;;11.00;4.95;;;3.70;53.60;;;;;;5025051;28;20041;-70
2022/03/11 06:23:32;;;;;;;10.25;4.65;;;3.70;53.20;;;;;;5024007;28;20041;-70
2022/03/11 06:26:01;;;;;;;8.57;3.95;;;3.70;52.80;;;;;;5023345;28;20051;-69
2022/03/11 06:28:29;;;;;;;7.70;4.32;;;3.70;53.00;;;;;;5023199;28;20510;-70
2022/03/11 06:30:56;;;;;;;11.55;4.60;;;3.70;52.90;;;;;;5021930;28;20814;-70
2022/03/11 06:33:23;;;;;;;8.85;4.60;;;3.70;52.70;;;;;;5024502;28;20044;-70
2022/03/11 06:35:50;;;;;;;9.02;4.10;;;3.80;52.00;;;;;;5020100;28;20048;-68
2022/03/11 06:38:17;;;;;;;8.82;3.63;;;3.70;52.10;;;;;;5023521;28;20056;-69
2022/03/11 06:40:50;;;;;;;7.10;3.60;;;3.80;52.30;;;;;;5022387;28;20061;-70
2022/03/11 06:43:18;;;;;;;10.30;4.70;;;3.80;52.00;;;;;;5023093;28;20057;-70
2022/03/11 06:45:45;;;;;;;7.28;3.67;;;3.80;51.50;;;;;;5023585;28;20128;-70
2022/03/11 06:48:18;;;;;;;8.35;3.58;;;3.80;51.50;;;;;;5022854;28;20255;-70
2022/03/11 06:50:45;;;;;;;8.95;3.20;;;3.80;51.50;;;;;;5023263;28;20056;-69
2022/03/11 06:53:13;;;;;;;6.00;3.08;;;3.80;51.20;;;;;;5023352;28;20104;-69
2022/03/11 06:55:40;;;;;;;6.70;4.20;;;3.90;50.70;;;;;;5023083;28;20427;-69
2022/03/11 06:58:07;;;;;;;8.95;3.78;;;3.90;50.20;;;;;;5024606;28;20036;-68
2022/03/11 07:00:37;;;;;;;5.90;2.78;;;3.90;49.70;;;;;;5022663;28;20041;-68
2022/03/11 07:03:04;;;;;;;9.35;3.05;;;4.00;49.80;;;;;;5023144;28;20041;-68
2022/03/11 07:05:31;;;;;;;7.68;3.33;;;4.00;50.10;;;;;;5025202;28;20049;-67
2022/03/11 07:07:58;;;;;;;7.13;3.35;;;4.00;49.60;;;;;;5023893;28;20049;-69
2022/03/11 07:10:25;;;;;;;8.13;3.20;;;4.10;49.40;;;;;;5025042;28;20049;-68
2022/03/11 07:12:52;;;;;;;8.30;3.20;;;4.10;49.20;;;;;;5022837;28;20506;-68
2022/03/11 07:15:19;;;;;;;6.82;3.60;;;4.10;49.50;;;;;;5024234;28;20052;-69
2022/03/11 07:17:49;;;;;;;8.43;3.10;;;4.10;49.20;;;;;;5020846;28;20045;-69
2022/03/11 07:20:15;;;;;;;5.80;2.83;;;4.20;48.90;;;;;;5022942;28;20046;-70
2022/03/11 07:22:47;;;;;;;7.78;3.30;;;4.20;48.40;;;;;;5023102;28;20862;-67
2022/03/11 07:25:19;;;;;;;8.75;3.45;;;4.20;48.10;;;;;;5023869;28;20150;-68
2022/03/11 07:27:48;;;;;;;5.82;3.25;;;4.20;48.30;;;;;;5026870;28;20064;-69
2022/03/11 07:30:15;;;;;;;6.20;2.50;;;4.20;48.30;;;;;;5030052;28;20135;-69
2022/03/11 07:32:42;;;;;;;6.68;2.97;;;4.20;48.50;;;;;;5028509;28;20072;-69
2022/03/11 07:35:12;;;;;;;6.25;3.03;;;4.20;48.40;;;;;;5027221;28;20398;-69
2022/03/11 07:37:40;;;;;;;8.83;3.47;;;4.20;47.80;;;;;;5029792;28;20502;-69
2022/03/11 07:40:08;;;;;;;6.82;3.33;;;4.20;48.00;;;;;;5022258;28;20474;-68
2022/03/11 07:42:42;;;;;;;7.80;2.72;;;4.30;47.70;;;;;;5026308;28;20056;-68
2022/03/11 07:45:12;;;;;;;8.40;3.57;;;4.30;48.00;;;;;;5032553;28;20633;-69
2022/03/11 07:47:40;;;;;;;6.53;2.90;;;4.30;47.60;;;;;;5027155;28;20057;-69
2022/03/11 07:50:09;;;;;;;7.45;3.15;;;4.30;47.30;;;;;;5020443;28;20048;-69
2022/03/11 07:52:38;;;;;;;6.85;2.90;;;4.40;46.70;;;;;;5021120;28;20063;-69
2022/03/11 07:55:06;;;;;;;6.40;3.20;;;4.40;47.10;;;;;;5024639;28;20075;-69
2022/03/11 07:57:33;;;;;;;7.75;2.58;;;4.50;46.60;;;;;;5028164;28;20041;-69
2022/03/11 08:00:01;;;;;;;7.28;3.35;;;4.50;46.80;;;;;;5023140;28;20123;-70
2022/03/11 08:02:29;;;;;;;6.03;2.85;;;4.60;47.10;;;;;;5023744;28;20531;-69
2022/03/11 08:04:57;;;;;;;7.93;3.05;;;4.70;47.00;;;;;;5021580;28;20068;-69
2022/03/11 08:07:24;;;;;;;7.63;3.47;;;4.80;46.80;;;;;;5024285;28;20048;-70
2022/03/11 08:09:54;;;;;;;7.68;2.80;;;4.90;46.50;;;;;;5022381;28;20136;-70
2022/03/11 08:12:21;;;;;;;8.20;2.63;;;5.00;46.00;;;;;;5023189;28;20156;-69
2022/03/11 08:14:48;;;;;;;6.82;2.60;;;5.00;46.00;;;;;;5022096;28;20043;-69
2022/03/11 08:17:15;;;;;;;4.88;2.42;;;5.10;45.60;;;;;;5021588;28;20140;-70
2022/03/11 08:19:42;;;;;;;7.18;3.03;;;5.20;45.60;;;;;;5023068;28;20052;-70
2022/03/11 08:22:11;;;;;;;8.73;3.30;;;5.30;45.50;;;;;;5025038;28;20050;-70
2022/03/11 08:24:38;;;;;;;5.43;2.47;;;5.30;45.70;;;;;;5021682;28;20045;-70
2022/03/11 08:27:06;;;;;;;6.78;3.40;;;5.40;45.50;;;;;;5023242;28;20052;-70
2022/03/11 08:29:34;;;;;;;7.55;3.22;;;5.50;45.70;;;;;;5023232;28;20418;-68
2022/03/11 08:32:02;;;;;;;9.32;3.47;;;5.60;45.50;;;;;;5026799;28;20064;-69
2022/03/11 08:34:29;;;;;;;7.55;2.72;;;5.70;45.40;;;;;;5027006;28;20041;-69
2022/03/11 08:36:56;;;;;;;9.15;3.53;;;5.80;44.30;;;;;;5027507;28;20045;-68
2022/03/11 08:39:23;;;;;;;7.53;3.30;;;5.90;45.00;;;;;;5026799;28;20052;-70
2022/03/11 08:41:50;;;;;;;8.40;3.58;;;5.90;45.00;;;;;;5026812;28;20176;-69
2022/03/11 08:44:18;;;;;;;5.22;2.65;;;6.00;44.10;;;;;;5027523;28;20558;-69
2022/03/11 08:46:45;;;;;;;8.27;3.15;;;6.10;44.40;;;;;;5025381;28;20033;-70
2022/03/11 08:49:12;;;;;;;6.65;2.90;;;6.20;44.20;;;;;;5027161;28;20056;-69
2022/03/11 08:51:41;;;;;;;11.38;4.25;;;6.30;44.50;;;;;;5026323;28;20124;-69
2022/03/11 08:54:08;;;;;;;7.03;3.08;;;6.40;44.30;;;;;;5027923;28;20049;-69
2022/03/11 08:56:35;;;;;;;7.82;3.33;;;6.50;44.00;;;;;;5024313;28;21970;-70
2022/03/11 08:59:02;;;;;;;9.10;3.00;;;6.60;43.80;;;;;;5023643;28;20191;-69
2022/03/11 09:01:31;;;;;;;6.05;2.90;;;6.60;43.80;;;;;;5028741;28;20045;-66
2022/03/11 09:03:57;;;;;;;7.80;3.30;;;6.70;43.70;;;;;;5027040;28;20045;-66
2022/03/11 09:06:25;;;;;;;6.18;2.92;;;6.80;43.40;;;;;;5026122;28;20048;-66
2022/03/11 09:08:52;;;;;;;8.10;3.08;;;6.80;43.90;;;;;;5023477;28;20066;-68
2022/03/11 09:11:19;;;;;;;7.18;3.10;;;6.90;43.20;;;;;;5024236;28;20147;-68
2022/03/11 09:13:47;;;;;;;8.27;3.53;;;7.00;43.50;;;;;;5026653;28;20056;-68
2022/03/11 09:16:14;;;;;;;6.82;2.97;;;7.10;43.30;;;;;;5024508;28;20128;-67
2022/03/11 09:18:42;;;;;;;7.20;3.13;;;7.10;43.10;;;;;;5025168;28;21824;-68
2022/03/11 09:21:09;;;;;;;6.22;2.72;;;7.20;43.10;;;;;;5027010;28;20055;-70
2022/03/11 09:23:37;;;;;;;4.85;2.60;;;7.30;43.40;;;;;;5025869;28;20191;-68
2022/03/11 09:26:04;;;;;;;7.88;3.08;;;7.40;42.80;;;;;;5024723;28;20271;-67
2022/03/11 09:28:32;;;;;;;7.78;3.83;;;7.40;43.30;;;;;;5026770;28;20625;-68
2022/03/11 09:31:00;;;;;;;8.18;3.17;;;7.50;43.40;;;;;;5022566;28;20052;-67
2022/03/11 09:33:28;;;;;;;6.32;2.38;;;7.60;42.80;;;;;;5024694;28;20807;-65
2022/03/11 09:35:56;;;;;;;9.45;3.05;;;7.60;41.30;;;;;;5023731;28;20045;-68
2022/03/11 09:38:23;;;;;;;8.15;3.42;;;7.70;41.40;;;;;;5023196;28;20244;-67
2022/03/11 09:40:51;;;;;;;7.30;2.92;;;7.80;42.70;;;;;;5023381;28;20593;-67
2022/03/11 09:43:20;;;;;;;7.65;2.97;;;7.90;42.10;;;;;;5023400;28;20045;-68
2022/03/11 09:45:50;;;;;;;5.55;3.10;;;7.90;41.90;;;;;;5023079;28;20113;-68
2022/03/11 09:48:18;;;;;;;6.20;3.22;;;7.90;42.20;;;;;;5024286;28;20049;-67
2022/03/11 09:50:45;;;;;;;8.02;3.38;;;8.00;41.80;;;;;;5020890;28;20033;-67
2022/03/11 09:53:13;;;;;;;8.88;3.05;;;8.10;41.60;;;;;;5023356;28;20124;-68
2022/03/11 09:55:41;;;;;;;8.63;3.30;;;8.10;41.80;;;;;;5026203;28;20487;-66
2022/03/11 09:58:07;;;;;;;6.88;3.30;;;8.20;40.40;;;;;;5025350;28;20984;-69
2022/03/11 10:00:35;;;;;;;6.75;3.22;;;8.20;40.90;;;;;;5023245;28;20045;-66
2022/03/11 10:03:02;;;;;;;7.60;3.30;;;8.20;40.90;;;;;;5022569;28;20648;-67
2022/03/11 10:05:47;;;;;;;7.85;3.10;;;8.30;41.00;;;;;;5038365;28;20044;-68
2022/03/11 10:08:32;;;;;;;10.15;3.80;;;8.30;40.80;;;;;;5023076;28;20049;-67
2022/03/11 10:11:17;;;;;;;8.00;2.97;;;8.40;40.00;;;;;;5023547;28;20041;-68
2022/03/11 10:13:46;;;;;;;7.85;2.83;;;8.40;40.20;;;;;;5023750;28;20053;-67
2022/03/11 10:16:20;;;;;;;8.77;3.40;;;8.40;40.50;;;;;;5024871;28;20037;-68
2022/03/11 10:19:00;;;;;;;4.57;2.53;;;8.50;40.00;;;;;;5025851;28;20044;-70
2022/03/11 10:21:32;;;;;;;7.40;3.35;;;8.60;39.10;;;;;;5025412;28;20586;-68
2022/03/11 10:24:02;;;;;;;6.22;2.67;;;8.60;39.80;;;;;;5024127;28;20532;-67
2022/03/11 10:26:37;;;;;;;8.35;3.17;;;8.60;39.90;;;;;;5024713;28;21010;-68
2022/03/11 10:29:05;;;;;;;6.28;2.63;;;8.70;39.80;;;;;;5023081;28;20099;-68
2022/03/11 10:31:34;;;;;;;7.47;3.35;;;8.70;40.40;;;;;;5023914;28;20045;-69
2022/03/11 10:34:19;;;;;;;6.85;3.22;;;8.80;40.00;;;;;;5023978;28;20120;-66
2022/03/11 10:36:54;;;;;;;9.65;4.53;;;8.90;39.80;;;;;;5023963;28;20045;-67
2022/03/11 10:39:25;;;;;;;11.32;5.13;;;8.90;40.00;;;;;;5024421;28;20044;-67
2022/03/11 10:41:53;;;;;;;11.70;4.75;;;9.00;40.20;;;;;;5023601;28;20091;-66
2022/03/11 10:44:23;;;;;;;11.57;4.43;;;9.00;38.40;;;;;;5025629;28;20464;-67
2022/03/11 10:46:50;;;;;;;11.13;4.97;;;9.10;38.50;;;;;;5024578;28;20049;-67
2022/03/11 10:49:32;;;;;;;10.23;4.28;;;9.10;38.70;;;;;;5024403;28;20049;-67
2022/03/11 10:52:00;;;;;;;11.40;4.53;;;9.10;39.10;;;;;;5023633;28;20090;-68
2022/03/11 10:54:30;;;;;;;8.10;3.88;;;9.20;39.10;;;;;;5022807;28;20033;-67
2022/03/11 10:57:09;;;;;;;8.35;3.67;;;9.20;38.90;;;;;;5024225;28;20132;-68
2022/03/11 10:59:37;;;;;;;6.05;2.70;;;9.20;38.00;;;;;;5023114;28;20073;-66
2022/03/11 11:02:04;;;;;;;5.95;3.13;;;9.20;37.10;;;;;;5023906;28;21047;-67
2022/03/11 11:04:32;;;;;;;6.97;2.85;;;9.20;36.80;;;;;;5022798;28;20044;-67
2022/03/11 11:07:00;;;;;;;5.43;2.90;;;9.20;36.20;;;;;;5027312;28;20556;-66
2022/03/11 11:09:29;;;;;;;9.90;3.53;;;9.20;36.90;;;;;;5024952;28;20422;-67
2022/03/11 11:11:56;;;;;;;7.35;3.00;;;9.20;37.20;;;;;;5023137;28;20071;-67
2022/03/11 11:14:23;;;;;;;7.53;2.83;;;9.20;37.20;;;;;;5023816;28;20085;-69
2022/03/11 11:16:56;;;;;;;6.45;3.13;;;9.30;37.70;;;;;;5024429;28;20037;-67
2022/03/11 11:19:25;;;;;;;6.93;2.97;;;9.30;38.10;;;;;;5023165;28;20064;-68
2022/03/11 11:21:53;;;;;;;6.50;2.83;;;9.40;37.60;;;;;;5023497;28;20085;-69
2022/03/11 11:24:23;;;;;;;5.40;2.63;;;9.40;38.50;;;;;;5021457;28;20047;-68
2022/03/11 11:26:55;;;;;;;6.20;2.97;;;9.50;38.20;;;;;;5021159;28;20049;-69
2022/03/11 11:29:25;;;;;;;6.68;2.92;;;9.50;38.30;;;;;;5025246;28;20414;-66
2022/03/11 11:31:52;;;;;;;7.60;2.63;;;9.50;38.00;;;;;;5025622;28;20147;-67
2022/03/11 11:34:27;;;;;;;7.60;3.47;;;9.50;38.10;;;;;;5023319;28;20044;-69
2022/03/11 11:36:55;;;;;;;8.90;2.95;;;9.50;38.30;;;;;;5022441;28;20052;-68
2022/03/11 11:39:25;;;;;;;6.15;2.80;;;9.60;39.30;;;;;;5023023;28;20044;-70
2022/03/11 11:42:08;;;;;;;6.85;3.13;;;9.60;38.80;;;;;;5024265;28;20053;-66
2022/03/11 11:44:37;;;;;;;6.82;2.97;;;9.60;38.00;;;;;;5029449;28;20138;-68
2022/03/11 11:47:10;;;;;;;6.85;3.10;;;9.70;38.90;;;;;;5026953;28;20115;-67
2022/03/11 11:49:42;;;;;;;8.85;3.38;;;9.70;38.50;;;;;;5023838;28;20148;-67
2022/03/11 11:52:12;;;;;;;6.55;3.05;;;9.70;37.70;;;;;;5019011;28;20063;-67
2022/03/11 11:54:44;;;;;;;6.20;2.97;;;9.70;36.10;;;;;;5024917;28;20142;-68
2022/03/11 11:57:24;;;;;;;5.75;2.45;;;9.70;36.40;;;;;;5022504;28;20053;-65
2022/03/11 11:59:52;;;;;;;8.05;2.28;;;9.70;37.80;;;;;;5023192;28;21385;-66
2022/03/11 12:02:35;;;;;;;8.63;3.40;;;9.70;37.90;;;;;;5022362;28;20242;-67
2022/03/11 12:05:41;;;;;;;6.35;2.67;;;9.70;38.10;;;;;;5025059;28;20055;-66
2022/03/11 12:08:08;;;;;;;5.85;2.60;;;9.70;38.30;;;;;;5028293;28;20049;-69
2022/03/11 12:10:49;;;;;;;7.50;2.78;;;9.70;37.60;;;;;;5026490;28;20052;-66
2022/03/11 12:13:32;;;;;;;5.53;2.70;;;9.70;37.60;;;;;;5029396;28;20125;-66
2022/03/11 12:15:59;;;;;;;7.65;3.25;;;9.80;38.50;;;;;;5026947;28;20050;-67
2022/03/11 12:18:40;;;;;;;6.50;2.83;;;9.80;37.80;;;;;;5026204;28;20152;-66
2022/03/11 12:21:08;;;;;;;6.65;2.42;;;9.70;38.40;;;;;;5041492;28;20423;-68
2022/03/11 12:23:36;;;;;;;6.75;2.47;;;9.70;39.00;;;;;;5026514;28;20045;-66
2022/03/11 12:26:12;;;;;;;6.03;2.13;;;9.70;39.60;;;;;;5025411;28;20042;-65
2022/03/11 12:28:42;;;;;;;5.20;2.50;;;9.70;39.80;;;;;;5027373;28;20061;-67
2022/03/11 12:31:11;;;;;;;9.30;2.67;;;9.70;38.90;;;;;;5028421;28;20045;-66
2022/03/11 12:33:39;;;;;;;8.70;2.75;;;9.80;38.40;;;;;;5023683;28;20045;-67
2022/03/11 12:36:08;;;;;;;7.32;3.13;;;9.80;39.00;;;;;;5026079;28;20045;-69
2022/03/11 12:38:37;;;;;;;9.07;2.80;;;9.80;38.30;;;;;;5025910;28;20095;-69
2022/03/11 12:41:06;;;;;;;5.68;3.13;;;9.80;39.20;;;;;;5029288;28;20102;-68
2022/03/11 12:43:34;;;;;;;7.07;2.92;;;9.70;39.80;;;;;;5026572;28;20064;-65
2022/03/11 12:46:06;;;;;;;6.63;2.53;;;9.80;39.70;;;;;;5026682;28;20266;-66
2022/03/11 12:48:37;;;;;;;10.25;2.80;;;9.80;36.40;;;;;;5025786;28;20033;-66
2022/03/11 12:51:05;;;;;;;5.20;2.70;;;9.80;38.00;;;;;;5027511;28;20079;-67
2022/03/11 12:53:32;;;;;;;5.38;2.30;;;9.80;37.70;;;;;;5027026;28;20134;-67
2022/03/11 12:55:59;;;;;;;5.53;2.63;;;9.80;38.70;;;;;;5023327;28;20060;-67
2022/03/11 12:58:31;;;;;;;6.38;3.00;;;9.80;38.90;;;;;;5025566;28;20045;-67
2022/03/11 13:00:59;;;;;;;5.75;2.30;;;9.80;38.80;;;;;;5025392;28;20138;-66